createdAt,value
2023-04-04T00:01:21.343Z,2.18
2023-04-04T00:03:51.641Z,2.23
2023-04-04T00:06:19.096Z,2.08
2023-04-04T00:08:45.524Z,2.02
2023-04-04T00:11:11.934Z,1.98
2023-04-04T00:13:38.839Z,1.98
2023-04-04T00:16:06.000Z,1.83
2023-04-04T00:18:32.630Z,1.84
2023-04-04T00:20:59.432Z,2.08
2023-04-04T00:23:25.817Z,1.99
2023-04-04T00:25:52.835Z,2.19
2023-04-04T00:28:20.527Z,1.86
2023-04-04T00:30:47.332Z,1.78
2023-04-04T00:33:17.095Z,1.75
2023-04-04T00:35:43.616Z,1.77
2023-04-04T00:38:10.075Z,1.81
2023-04-04T00:40:43.942Z,1.83
2023-04-04T00:43:10.436Z,1.93
2023-04-04T00:45:36.944Z,1.95
2023-04-04T00:48:03.490Z,2.03
2023-04-04T00:50:32.063Z,2.07
2023-04-04T00:52:58.800Z,1.98
2023-04-04T00:55:25.730Z,1.92
2023-04-04T00:57:52.345Z,1.84
2023-04-04T01:00:18.965Z,1.77
2023-04-04T01:02:45.436Z,1.79
2023-04-04T01:05:12.500Z,1.95
2023-04-04T01:07:39.569Z,1.84
2023-04-04T01:10:06.530Z,1.89
2023-04-04T01:12:32.960Z,1.88
2023-04-04T01:14:59.336Z,1.85
2023-04-04T01:17:27.114Z,1.76
2023-04-04T01:20:01.204Z,1.85
2023-04-04T01:22:29.697Z,1.80
2023-04-04T01:24:57.263Z,1.66
2023-04-04T01:27:23.787Z,1.62
2023-04-04T01:29:50.205Z,1.47
2023-04-04T01:32:20.887Z,1.40
2023-04-04T01:34:53.902Z,1.50
2023-04-04T01:37:21.266Z,1.50
2023-04-04T01:40:08.658Z,1.59
2023-04-04T01:42:36.056Z,1.65
2023-04-04T01:45:03.027Z,1.45
2023-04-04T01:47:31.014Z,1.50
2023-04-04T01:49:57.420Z,1.41
2023-04-04T01:52:23.788Z,1.30
2023-04-04T01:54:50.599Z,1.46
2023-04-04T01:57:17.395Z,1.26
2023-04-04T01:59:43.849Z,1.47
2023-04-04T02:02:12.878Z,1.50
2023-04-04T02:04:39.427Z,1.34
2023-04-04T02:07:06.411Z,1.23
2023-04-04T02:09:33.479Z,1.27
2023-04-04T02:11:59.927Z,1.16
2023-04-04T02:14:26.467Z,1.25
2023-04-04T02:16:52.939Z,1.15
2023-04-04T02:19:19.328Z,1.26
2023-04-04T02:21:45.844Z,1.38
2023-04-04T02:24:12.586Z,1.41
2023-04-04T02:26:39.076Z,1.26
2023-04-04T02:29:06.231Z,0.96
2023-04-04T02:31:32.695Z,0.95
2023-04-04T02:33:59.166Z,1.12
2023-04-04T02:36:25.618Z,1.05
2023-04-04T02:38:51.999Z,1.08
2023-04-04T02:41:18.399Z,0.81
2023-04-04T02:43:44.816Z,0.59
2023-04-04T02:46:20.969Z,0.66
2023-04-04T02:48:48.549Z,0.76
2023-04-04T02:51:14.924Z,0.85
2023-04-04T02:53:41.331Z,0.81
2023-04-04T02:56:07.775Z,0.90
2023-04-04T02:58:34.805Z,0.99
2023-04-04T03:01:01.281Z,1.03
2023-04-04T03:03:27.953Z,1.04
2023-04-04T03:05:54.591Z,0.99
2023-04-04T03:08:20.967Z,0.93
2023-04-04T03:10:47.353Z,0.98
2023-04-04T03:13:13.787Z,1.07
2023-04-04T03:15:43.777Z,0.94
2023-04-04T03:18:13.913Z,0.93
2023-04-04T03:20:40.482Z,0.90
2023-04-04T03:23:07.050Z,0.98
2023-04-04T03:25:33.454Z,0.95
2023-04-04T03:28:08.682Z,0.85
2023-04-04T03:30:35.212Z,0.74
2023-04-04T03:33:09.845Z,0.59
2023-04-04T03:35:40.045Z,0.61
2023-04-04T03:38:06.988Z,0.56
2023-04-04T03:40:33.453Z,0.58
2023-04-04T03:42:59.876Z,0.46
2023-04-04T03:45:26.252Z,0.40
2023-04-04T03:47:52.793Z,0.38
2023-04-04T03:50:19.306Z,0.57
2023-04-04T03:52:45.685Z,0.32
2023-04-04T03:55:12.475Z,0.54
2023-04-04T03:57:38.858Z,0.43
2023-04-04T04:00:05.896Z,0.31
2023-04-04T04:02:32.374Z,0.18
2023-04-04T04:04:58.785Z,0.19
2023-04-04T04:07:25.513Z,0.13
2023-04-04T04:09:51.914Z,0.17
2023-04-04T04:12:18.294Z,0.26
2023-04-04T04:14:44.684Z,0.25
2023-04-04T04:17:11.175Z,0.11
2023-04-04T04:19:37.557Z,0.07
2023-04-04T04:22:03.936Z,0.11
2023-04-04T04:24:30.381Z,0.06
2023-04-04T04:26:56.765Z,-0.08
2023-04-04T04:29:23.359Z,0.07
2023-04-04T04:31:49.825Z,0.21
2023-04-04T04:34:16.262Z,0.04
2023-04-04T04:36:42.635Z,0.25
2023-04-04T04:39:09.086Z,0.16
2023-04-04T04:41:36.634Z,0.08
2023-04-04T04:44:03.340Z,0.05
2023-04-04T04:46:29.946Z,0.23
2023-04-04T04:48:56.630Z,0.52
2023-04-04T04:51:23.336Z,0.43
2023-04-04T04:53:49.714Z,0.46
2023-04-04T04:56:16.556Z,0.29
2023-04-04T04:58:45.015Z,0.25
2023-04-04T05:01:11.857Z,0.04
2023-04-04T05:03:38.323Z,-0.10
2023-04-04T05:06:04.889Z,-0.11
2023-04-04T05:08:31.271Z,-0.13
2023-04-04T05:10:57.859Z,-0.03
2023-04-04T05:13:24.323Z,-0.14
2023-04-04T05:15:50.898Z,0.08
2023-04-04T05:18:17.327Z,0.26
2023-04-04T05:20:43.858Z,0.35
2023-04-04T05:23:10.235Z,0.44
2023-04-04T05:25:36.646Z,0.41
2023-04-04T05:28:03.903Z,0.44
2023-04-04T05:30:30.330Z,0.37
2023-04-04T05:32:56.745Z,0.19
2023-04-04T05:35:23.174Z,0.39
2023-04-04T05:37:49.634Z,0.52
2023-04-04T05:40:16.164Z,0.28
2023-04-04T05:42:42.709Z,0.53
2023-04-04T05:45:09.686Z,0.57
2023-04-04T05:47:36.169Z,0.54
2023-04-04T05:50:02.734Z,0.39
2023-04-04T05:52:29.114Z,0.35
2023-04-04T05:54:55.878Z,0.33
2023-04-04T05:57:23.450Z,0.39
2023-04-04T05:59:50.622Z,0.42
2023-04-04T06:02:17.393Z,0.44
2023-04-04T06:04:45.331Z,0.31
2023-04-04T06:07:11.718Z,0.42
2023-04-04T06:09:38.389Z,0.66
2023-04-04T06:12:04.816Z,0.59
2023-04-04T06:14:31.268Z,0.70
2023-04-04T06:16:58.318Z,0.54
2023-04-04T06:19:24.699Z,0.48
2023-04-04T06:21:51.320Z,0.68
2023-04-04T06:24:17.690Z,0.53
2023-04-04T06:26:45.028Z,0.29
2023-04-04T06:29:11.543Z,0.30
2023-04-04T06:31:38.125Z,0.35
2023-04-04T06:34:04.568Z,0.47
2023-04-04T06:36:31.105Z,0.34
2023-04-04T06:38:57.678Z,0.33
2023-04-04T06:41:24.048Z,0.46
2023-04-04T06:43:50.514Z,0.36
2023-04-04T06:46:17.009Z,0.34
2023-04-04T06:48:43.454Z,0.28
2023-04-04T06:51:09.860Z,0.02
2023-04-04T06:53:36.405Z,0.13
2023-04-04T06:56:03.203Z,0.52
2023-04-04T06:58:29.600Z,0.57
2023-04-04T07:00:57.065Z,0.60
2023-04-04T07:03:24.328Z,0.64
2023-04-04T07:05:50.746Z,0.85
2023-04-04T07:08:17.132Z,0.67
2023-04-04T07:10:43.953Z,1.02
2023-04-04T07:13:11.147Z,1.05
2023-04-04T07:15:37.619Z,1.10
2023-04-04T07:18:04.082Z,1.27
2023-04-04T07:20:30.497Z,1.28
2023-04-04T07:22:56.921Z,1.19
2023-04-04T07:25:23.312Z,1.23
2023-04-04T07:27:53.069Z,1.41
2023-04-04T07:30:26.267Z,1.41
2023-04-04T07:33:02.695Z,1.63
2023-04-04T07:35:29.204Z,1.84
2023-04-04T07:37:55.568Z,2.00
2023-04-04T07:40:22.035Z,2.01
2023-04-04T07:42:51.729Z,2.26
2023-04-04T07:45:18.297Z,2.69
2023-04-04T07:47:45.163Z,2.68
2023-04-04T07:50:12.566Z,2.81
2023-04-04T07:52:39.161Z,3.13
2023-04-04T07:55:07.346Z,3.43
2023-04-04T07:57:37.417Z,3.50
2023-04-04T08:00:05.714Z,3.21
2023-04-04T08:02:32.187Z,3.32
2023-04-04T08:04:58.603Z,3.42
2023-04-04T08:07:25.273Z,3.48
2023-04-04T08:09:51.706Z,3.37
2023-04-04T08:12:18.133Z,2.95
2023-04-04T08:14:44.564Z,2.88
2023-04-04T08:17:12.134Z,2.93
2023-04-04T08:19:38.502Z,2.89
2023-04-04T08:22:05.337Z,3.08
2023-04-04T08:24:31.713Z,3.16
2023-04-04T08:27:05.288Z,3.18
2023-04-04T08:29:32.710Z,3.29
2023-04-04T08:31:59.438Z,3.26
2023-04-04T08:34:25.993Z,3.50
2023-04-04T08:36:52.888Z,3.64
2023-04-04T08:39:19.246Z,3.67
2023-04-04T08:41:45.946Z,3.94
2023-04-04T08:44:18.004Z,4.03
2023-04-04T08:46:45.489Z,4.27
2023-04-04T08:49:13.722Z,4.80
2023-04-04T08:51:44.574Z,4.70
2023-04-04T08:54:13.016Z,5.09
2023-04-04T08:56:39.405Z,4.84
2023-04-04T08:59:06.053Z,4.68
2023-04-04T09:01:33.216Z,4.87
2023-04-04T09:04:00.477Z,4.88
2023-04-04T09:06:27.702Z,5.16
2023-04-04T09:08:54.574Z,5.03
2023-04-04T09:11:22.324Z,5.15
2023-04-04T09:13:50.765Z,5.20
2023-04-04T09:16:17.436Z,5.59
2023-04-04T09:18:44.022Z,5.51
2023-04-04T09:21:11.850Z,5.44
2023-04-04T09:23:38.595Z,5.06
2023-04-04T09:26:05.366Z,5.48
2023-04-04T09:28:32.561Z,5.84
2023-04-04T09:31:05.535Z,5.99
2023-04-04T09:33:33.413Z,6.29
2023-04-04T09:36:12.549Z,6.49
2023-04-04T09:38:40.870Z,6.86
2023-04-04T09:41:09.710Z,6.84
2023-04-04T09:43:37.271Z,6.49
2023-04-04T09:46:04.126Z,6.85
2023-04-04T09:48:32.506Z,7.04
2023-04-04T09:50:59.667Z,7.13
2023-04-04T09:53:26.269Z,7.14
2023-04-04T09:55:54.563Z,7.22
2023-04-04T09:58:24.717Z,7.09
2023-04-04T10:00:53.282Z,7.89
2023-04-04T10:03:22.202Z,7.96
2023-04-04T10:05:54.296Z,7.90
2023-04-04T10:08:24.176Z,7.84
2023-04-04T10:11:06.506Z,8.29
2023-04-04T10:13:40.476Z,8.37
2023-04-04T10:16:07.267Z,8.43
2023-04-04T10:18:35.403Z,8.54
2023-04-04T10:21:14.651Z,9.03
2023-04-04T10:23:43.740Z,9.59
2023-04-04T10:26:10.837Z,9.24
2023-04-04T10:28:37.658Z,8.48
2023-04-04T10:31:22.040Z,8.05
2023-04-04T10:34:00.791Z,8.20
2023-04-04T10:36:31.431Z,7.88
2023-04-04T10:39:04.963Z,8.54
2023-04-04T10:41:32.416Z,8.86
2023-04-04T10:44:01.299Z,9.04
2023-04-04T10:46:31.696Z,9.31
2023-04-04T10:49:00.176Z,8.49
2023-04-04T10:51:26.979Z,8.73
2023-04-04T10:53:53.991Z,8.79
2023-04-04T10:56:21.435Z,8.95
2023-04-04T10:58:49.108Z,8.55
2023-04-04T11:01:20.838Z,8.78
2023-04-04T11:04:20.084Z,9.43
2023-04-04T11:07:16.107Z,9.54
2023-04-04T11:09:55.396Z,10.27
2023-04-04T11:12:31.149Z,9.84
2023-04-04T11:15:00.535Z,10.40
2023-04-04T11:17:48.657Z,9.86
2023-04-04T11:20:17.052Z,9.33
2023-04-04T11:22:43.760Z,9.91
2023-04-04T11:25:27.072Z,10.57
2023-04-04T11:27:58.056Z,10.93
2023-04-04T11:30:30.364Z,10.65
2023-04-04T11:33:07.100Z,9.03
2023-04-04T11:35:38.415Z,9.54
2023-04-04T11:38:12.817Z,10.40
2023-04-04T11:40:41.319Z,10.62
2023-04-04T11:43:09.843Z,10.74
2023-04-04T11:45:37.425Z,11.59
2023-04-04T11:48:06.028Z,13.01
2023-04-04T11:50:40.027Z,12.82
2023-04-04T11:53:10.281Z,12.88
2023-04-04T11:55:43.802Z,12.85
2023-04-04T11:58:13.146Z,13.82
2023-04-04T12:00:39.991Z,13.62
2023-04-04T12:03:10.740Z,14.16
2023-04-04T12:05:38.636Z,14.62
2023-04-04T12:08:07.508Z,12.99
2023-04-04T12:10:34.803Z,11.64
2023-04-04T12:13:02.589Z,13.67
2023-04-04T12:15:29.791Z,12.40
2023-04-04T12:17:56.284Z,11.56
2023-04-04T12:20:24.250Z,11.77
2023-04-04T12:22:54.212Z,10.73
2023-04-04T12:25:22.121Z,12.14
2023-04-04T12:27:48.993Z,13.42
2023-04-04T12:30:16.069Z,12.22
2023-04-04T12:32:44.024Z,12.63
2023-04-04T12:35:11.630Z,12.90
2023-04-04T12:37:38.119Z,12.99
2023-04-04T12:40:04.972Z,12.98
2023-04-04T12:42:32.499Z,13.04
2023-04-04T12:45:02.161Z,12.73
2023-04-04T12:47:31.123Z,12.24
2023-04-04T12:49:57.629Z,12.55
2023-04-04T12:52:29.659Z,13.06
2023-04-04T12:55:07.392Z,12.83
2023-04-04T12:57:34.654Z,12.57
2023-04-04T13:00:02.197Z,12.00
2023-04-04T13:02:29.468Z,13.46
2023-04-04T13:04:56.378Z,12.71
2023-04-04T13:07:25.437Z,12.87
2023-04-04T13:09:57.814Z,12.60
2023-04-04T13:12:24.879Z,13.65
2023-04-04T13:15:01.741Z,14.80
2023-04-04T13:17:43.074Z,13.54
2023-04-04T13:20:10.496Z,14.67
2023-04-04T13:22:37.784Z,14.07
2023-04-04T13:25:05.795Z,14.41
2023-04-04T13:27:32.239Z,12.66
2023-04-04T13:29:58.624Z,12.92
2023-04-04T13:32:25.397Z,13.57
2023-04-04T13:34:51.912Z,15.75
2023-04-04T13:37:18.658Z,14.19
2023-04-04T13:39:45.028Z,15.32
2023-04-04T13:42:11.416Z,13.99
2023-04-04T13:44:37.787Z,14.30
2023-04-04T13:47:04.204Z,13.51
2023-04-04T13:49:30.645Z,14.60
2023-04-04T13:51:57.041Z,13.77
2023-04-04T13:54:23.419Z,14.67
2023-04-04T13:56:49.806Z,15.64
2023-04-04T13:59:16.292Z,15.62
2023-04-04T14:01:42.805Z,15.88
2023-04-04T14:04:22.980Z,14.85
2023-04-04T14:06:50.428Z,15.56
2023-04-04T14:09:16.802Z,16.58
2023-04-04T14:11:43.424Z,15.88
2023-04-04T14:14:09.826Z,17.68
2023-04-04T14:16:36.434Z,19.26
2023-04-04T14:19:03.001Z,19.23
2023-04-04T14:21:29.385Z,20.49
2023-04-04T14:23:55.787Z,19.15
2023-04-04T14:26:22.234Z,19.90
2023-04-04T14:28:48.792Z,19.31
2023-04-04T14:31:15.406Z,20.18
2023-04-04T14:33:41.998Z,19.13
2023-04-04T14:36:08.410Z,18.64
2023-04-04T14:38:34.835Z,19.21
2023-04-04T14:41:01.894Z,20.25
2023-04-04T14:43:28.325Z,19.78
2023-04-04T14:45:54.808Z,21.44
2023-04-04T14:48:21.227Z,19.37
2023-04-04T14:50:47.644Z,17.90
2023-04-04T14:53:14.167Z,18.80
2023-04-04T14:55:40.842Z,15.73
2023-04-04T14:58:08.179Z,12.83
2023-04-04T15:00:34.616Z,12.92
2023-04-04T15:03:01.539Z,13.47
2023-04-04T15:05:28.171Z,13.00
2023-04-04T15:07:55.516Z,12.45
2023-04-04T15:10:21.937Z,12.49
2023-04-04T15:12:48.409Z,13.47
2023-04-04T15:15:15.585Z,12.75
2023-04-04T15:17:42.196Z,13.06
2023-04-04T15:20:09.458Z,14.53
2023-04-04T15:22:36.267Z,14.95
2023-04-04T15:25:02.698Z,13.93
2023-04-04T15:27:29.190Z,13.47
2023-04-04T15:29:55.828Z,14.70
2023-04-04T15:32:22.232Z,14.49
2023-04-04T15:34:48.640Z,14.27
2023-04-04T15:37:15.725Z,13.93
2023-04-04T15:39:51.838Z,14.44
2023-04-04T15:42:19.692Z,16.82
2023-04-04T15:44:46.540Z,17.59
2023-04-04T15:47:13.089Z,17.93
2023-04-04T15:49:39.515Z,17.20
2023-04-04T15:52:05.964Z,16.06
2023-04-04T15:54:32.356Z,14.91
2023-04-04T15:56:58.730Z,15.13
2023-04-04T15:59:25.220Z,16.36
2023-04-04T16:01:51.812Z,14.95
2023-04-04T16:04:18.220Z,14.88
2023-04-04T16:06:44.612Z,15.40
2023-04-04T16:09:11.381Z,17.13
2023-04-04T16:11:37.924Z,16.83
2023-04-04T16:14:05.913Z,17.62
2023-04-04T16:16:32.332Z,16.32
2023-04-04T16:18:58.709Z,16.15
2023-04-04T16:21:27.997Z,17.17
2023-04-04T16:23:54.708Z,15.88
2023-04-04T16:26:21.951Z,16.99
2023-04-04T16:28:48.348Z,17.55
2023-04-04T16:31:15.340Z,17.49
2023-04-04T16:33:42.191Z,16.85
2023-04-04T16:36:08.682Z,16.64
2023-04-04T16:38:35.083Z,15.01
2023-04-04T16:41:01.862Z,15.43
2023-04-04T16:43:28.283Z,16.32
2023-04-04T16:45:54.663Z,14.49
2023-04-04T16:48:21.067Z,14.55
2023-04-04T16:50:47.545Z,14.85
2023-04-04T16:53:13.949Z,13.47
2023-04-04T16:55:40.589Z,12.54
2023-04-04T16:58:06.968Z,11.88
2023-04-04T17:00:33.444Z,12.36
2023-04-04T17:03:00.008Z,12.53
2023-04-04T17:05:26.494Z,12.10
2023-04-04T17:07:52.876Z,12.66
2023-04-04T17:10:19.408Z,13.57
2023-04-04T17:12:45.838Z,12.57
2023-04-04T17:15:12.276Z,11.96
2023-04-04T17:17:38.669Z,11.11
2023-04-04T17:20:05.924Z,11.42
2023-04-04T17:22:32.320Z,10.72
2023-04-04T17:24:58.735Z,10.92
2023-04-04T17:27:25.276Z,11.26
2023-04-04T17:29:52.096Z,11.26
2023-04-04T17:32:19.278Z,11.23
2023-04-04T17:34:46.015Z,11.03
2023-04-04T17:37:13.181Z,10.69
2023-04-04T17:39:39.575Z,10.73
2023-04-04T17:42:05.970Z,10.75
2023-04-04T17:44:32.378Z,10.77
2023-04-04T17:46:59.606Z,10.65
2023-04-04T17:49:26.257Z,10.84
2023-04-04T17:51:53.461Z,10.45
2023-04-04T17:54:20.700Z,10.47
2023-04-04T17:56:47.555Z,10.38
2023-04-04T17:59:14.638Z,10.25
2023-04-04T18:01:41.342Z,10.24
2023-04-04T18:04:08.222Z,10.01
2023-04-04T18:06:34.621Z,10.03
2023-04-04T18:09:01.020Z,9.76
2023-04-04T18:11:27.875Z,9.77
2023-04-04T18:13:54.323Z,9.89
2023-04-04T18:16:20.832Z,9.82
2023-04-04T18:18:47.256Z,9.62
2023-04-04T18:21:13.707Z,9.60
2023-04-04T18:23:40.505Z,9.74
2023-04-04T18:26:07.256Z,9.43
2023-04-04T18:28:33.634Z,9.24
2023-04-04T18:31:00.320Z,9.12
2023-04-04T18:33:27.879Z,9.15
2023-04-04T18:35:54.595Z,8.93
2023-04-04T18:38:21.195Z,8.85
2023-04-04T18:40:47.753Z,8.62
2023-04-04T18:43:14.212Z,8.53
2023-04-04T18:45:41.336Z,8.58
2023-04-04T18:48:08.397Z,8.74
2023-04-04T18:50:35.319Z,8.71
2023-04-04T18:53:01.773Z,8.37
2023-04-04T18:55:28.167Z,8.63
2023-04-04T18:57:54.775Z,8.74
2023-04-04T19:00:21.495Z,8.54
2023-04-04T19:02:48.125Z,8.48
2023-04-04T19:05:15.365Z,8.40
2023-04-04T19:07:42.266Z,8.34
2023-04-04T19:10:09.172Z,8.41
2023-04-04T19:12:35.715Z,8.32
2023-04-04T19:15:02.514Z,8.43
2023-04-04T19:17:29.604Z,8.30
2023-04-04T19:19:57.405Z,8.40
2023-04-04T19:22:23.843Z,8.33
2023-04-04T19:24:50.237Z,8.23
2023-04-04T19:27:16.658Z,8.11
2023-04-04T19:29:43.108Z,8.10
2023-04-04T19:32:16.685Z,8.03
2023-04-04T19:34:43.731Z,8.01
2023-04-04T19:37:12.143Z,8.07
2023-04-04T19:39:39.247Z,8.09
2023-04-04T19:42:07.130Z,8.11
2023-04-04T19:44:33.832Z,8.18
2023-04-04T19:47:01.006Z,8.24
2023-04-04T19:49:33.404Z,8.13
2023-04-04T19:52:01.388Z,7.83
2023-04-04T19:54:30.679Z,7.89
2023-04-04T19:57:03.433Z,7.64
2023-04-04T19:59:51.292Z,7.78
2023-04-04T20:02:26.948Z,7.71
2023-04-04T20:04:54.085Z,7.64
2023-04-04T20:07:20.756Z,7.64
2023-04-04T20:09:47.702Z,7.53
2023-04-04T20:12:16.076Z,7.46
2023-04-04T20:14:42.499Z,7.38
2023-04-04T20:17:09.618Z,7.26
2023-04-04T20:19:36.497Z,7.05
2023-04-04T20:22:04.888Z,6.97
2023-04-04T20:24:31.322Z,6.92
2023-04-04T20:26:59.015Z,7.00
2023-04-04T20:29:26.796Z,6.89
2023-04-04T20:31:55.478Z,7.02
2023-04-04T20:34:46.821Z,7.15
2023-04-04T20:37:24.134Z,7.13
2023-04-04T20:39:57.807Z,7.20
2023-04-04T20:42:30.494Z,7.24
2023-04-04T20:45:17.589Z,7.34
2023-04-04T20:47:51.836Z,7.14
2023-04-04T20:50:21.331Z,7.08
2023-04-04T20:52:52.863Z,7.05
2023-04-04T20:55:20.339Z,6.90
2023-04-04T20:57:47.329Z,6.81
2023-04-04T21:00:28.620Z,6.84
2023-04-04T21:03:09.284Z,6.92
2023-04-04T21:05:38.653Z,6.71
2023-04-04T21:08:42.823Z,6.75
2023-04-04T21:11:09.779Z,6.60
2023-04-04T21:13:38.457Z,6.44
2023-04-04T21:16:13.550Z,6.36
2023-04-04T21:18:41.531Z,6.24
2023-04-04T21:21:07.992Z,6.14
2023-04-04T21:23:41.552Z,6.31
2023-04-04T21:26:09.657Z,5.87
2023-04-04T21:28:38.047Z,5.58
2023-04-04T21:31:16.209Z,5.75
2023-04-04T21:33:47.732Z,5.93
2023-04-04T21:36:23.289Z,5.87
2023-04-04T21:38:51.293Z,5.99
2023-04-04T21:41:34.727Z,5.89
2023-04-04T21:44:06.520Z,5.70
2023-04-04T21:46:35.690Z,5.69
2023-04-04T21:49:03.099Z,5.71
2023-04-04T21:51:29.595Z,5.62
2023-04-04T21:53:57.314Z,5.69
2023-04-04T21:56:32.659Z,5.56
2023-04-04T21:59:04.251Z,5.43
2023-04-04T22:01:31.111Z,5.47
2023-04-04T22:03:58.518Z,5.43
2023-04-04T22:06:27.768Z,5.52
2023-04-04T22:08:55.933Z,5.34
2023-04-04T22:11:25.679Z,5.19
2023-04-04T22:13:52.459Z,5.21
2023-04-04T22:16:19.845Z,5.21
2023-04-04T22:18:47.795Z,5.29
2023-04-04T22:21:15.253Z,5.20
2023-04-04T22:23:42.216Z,5.11
2023-04-04T22:26:11.002Z,5.16
2023-04-04T22:28:38.478Z,5.24
2023-04-04T22:31:06.029Z,5.17
2023-04-04T22:33:33.826Z,5.13
2023-04-04T22:36:01.197Z,5.16
2023-04-04T22:38:28.265Z,5.21
2023-04-04T22:40:55.948Z,5.18
2023-04-04T22:43:22.591Z,5.13
2023-04-04T22:45:49.417Z,5.27
2023-04-04T22:48:15.863Z,5.13
2023-04-04T22:50:42.561Z,5.29
2023-04-04T22:53:12.793Z,5.12
2023-04-04T22:55:40.312Z,4.96
2023-04-04T22:58:07.450Z,4.95
2023-04-04T23:00:34.366Z,5.00
2023-04-04T23:03:02.071Z,4.98
2023-04-04T23:05:29.087Z,4.98
2023-04-04T23:07:55.560Z,5.01
2023-04-04T23:10:21.942Z,5.16
2023-04-04T23:12:48.336Z,5.11
2023-04-04T23:15:14.742Z,4.93
2023-04-04T23:17:41.330Z,4.95
2023-04-04T23:20:09.959Z,5.06
2023-04-04T23:22:37.729Z,5.00
2023-04-04T23:25:07.872Z,5.17
2023-04-04T23:27:34.672Z,5.23
2023-04-04T23:30:05.009Z,5.13
2023-04-04T23:32:32.008Z,5.17
2023-04-04T23:34:58.426Z,5.14
2023-04-04T23:37:24.836Z,4.99
2023-04-04T23:39:51.228Z,4.95
2023-04-04T23:42:17.604Z,4.91
2023-04-04T23:44:44.047Z,4.82
2023-04-04T23:47:10.821Z,4.81
2023-04-04T23:49:37.563Z,4.81
2023-04-04T23:52:05.956Z,4.77
2023-04-04T23:54:32.356Z,4.72
2023-04-04T23:56:58.786Z,4.76
2023-04-04T23:59:25.770Z,4.61
